sensor_id;sensor_type;location;lat;lon;timestamp;pressure;altitude;pressure_sealevel;temperature;humidity
3440;BME280;1733;42.286;22.690;2023-04-25T08:25:22;94783.44;;;19.35;58.57
3440;BME280;1733;42.286;22.690;2023-04-25T08:27:49;94769.06;;;18.96;58.16
3440;BME280;1733;42.286;22.690;2023-04-25T08:30:15;94783.25;;;18.60;59.05
3440;BME280;1733;42.286;22.690;2023-04-25T08:32:42;94775.09;;;18.79;58.98
3440;BME280;1733;42.286;22.690;2023-04-25T08:35:09;94772.31;;;19.33;57.08
3440;BME280;1733;42.286;22.690;2023-04-25T08:37:36;94772.88;;;19.78;56.30
3440;BME280;1733;42.286;22.690;2023-04-25T08:40:05;94765.00;;;20.16;56.38
3440;BME280;1733;42.286;22.690;2023-04-25T08:42:34;94777.25;;;20.17;53.15
3440;BME280;1733;42.286;22.690;2023-04-25T08:45:02;94766.59;;;19.91;51.88
3440;BME280;1733;42.286;22.690;2023-04-25T08:47:30;94773.16;;;20.37;52.46
3440;BME280;1733;42.286;22.690;2023-04-25T08:50:00;94762.25;;;20.77;52.07
3440;BME280;1733;42.286;22.690;2023-04-25T08:52:32;94763.72;;;20.66;49.37
3440;BME280;1733;42.286;22.690;2023-04-25T08:55:01;94761.69;;;20.37;50.26
3440;BME280;1733;42.286;22.690;2023-04-25T08:57:31;94750.56;;;20.17;52.57
3440;BME280;1733;42.286;22.690;2023-04-25T09:00:00;94754.34;;;19.73;52.96
3440;BME280;1733;42.286;22.690;2023-04-25T09:02:29;94760.72;;;19.46;53.29
3440;BME280;1733;42.286;22.690;2023-04-25T09:04:56;94763.66;;;19.36;53.42
3440;BME280;1733;42.286;22.690;2023-04-25T09:07:23;94772.66;;;19.00;52.68
3440;BME280;1733;42.286;22.690;2023-04-25T09:09:51;94767.13;;;18.79;55.71
3440;BME280;1733;42.286;22.690;2023-04-25T09:12:18;94767.69;;;18.68;55.99
3440;BME280;1733;42.286;22.690;2023-04-25T09:17:42;94769.94;;;18.83;54.48
3440;BME280;1733;42.286;22.690;2023-04-25T09:20:12;94764.00;;;19.34;53.81
3440;BME280;1733;42.286;22.690;2023-04-25T09:22:40;94761.41;;;19.86;54.55
3440;BME280;1733;42.286;22.690;2023-04-25T09:25:09;94765.50;;;20.10;52.45
3440;BME280;1733;42.286;22.690;2023-04-25T09:27:36;94750.72;;;20.47;52.56
3440;BME280;1733;42.286;22.690;2023-04-25T09:30:16;94760.25;;;20.57;52.32
3440;BME280;1733;42.286;22.690;2023-04-25T09:32:44;94758.75;;;20.85;51.18
3440;BME280;1733;42.286;22.690;2023-04-25T09:35:23;94760.25;;;20.57;51.37
3440;BME280;1733;42.286;22.690;2023-04-25T09:37:50;94763.94;;;20.09;52.12
3440;BME280;1733;42.286;22.690;2023-04-25T09:40:18;94768.16;;;19.92;52.93
3440;BME280;1733;42.286;22.690;2023-04-25T09:42:45;94755.94;;;19.91;54.20
3440;BME280;1733;42.286;22.690;2023-04-25T09:45:13;94748.06;;;19.86;54.34
3440;BME280;1733;42.286;22.690;2023-04-25T09:47:40;94754.22;;;19.96;54.20
3440;BME280;1733;42.286;22.690;2023-04-25T09:50:15;94758.56;;;20.17;53.75
3440;BME280;1733;42.286;22.690;2023-04-25T09:52:43;94747.16;;;19.17;54.49
3440;BME280;1733;42.286;22.690;2023-04-25T09:55:10;94753.41;;;19.03;56.46
3440;BME280;1733;42.286;22.690;2023-04-25T09:57:37;94745.03;;;18.87;57.32
3440;BME280;1733;42.286;22.690;2023-04-25T10:00:06;94744.50;;;18.68;56.52
3440;BME280;1733;42.286;22.690;2023-04-25T10:02:38;94749.16;;;18.63;56.27
3440;BME280;1733;42.286;22.690;2023-04-25T10:05:09;94759.38;;;18.47;56.56
3440;BME280;1733;42.286;22.690;2023-04-25T10:07:39;94749.13;;;18.31;57.40
3440;BME280;1733;42.286;22.690;2023-04-25T10:10:07;94733.94;;;18.32;57.50
3440;BME280;1733;42.286;22.690;2023-04-25T10:12:35;94739.22;;;18.54;59.57
3440;BME280;1733;42.286;22.690;2023-04-25T10:15:06;94747.81;;;18.74;57.67
3440;BME280;1733;42.286;22.690;2023-04-25T10:17:35;94758.38;;;18.65;58.53
3440;BME280;1733;42.286;22.690;2023-04-25T10:20:02;94739.59;;;19.01;59.97
3440;BME280;1733;42.286;22.690;2023-04-25T10:22:36;94730.09;;;19.18;58.46
3440;BME280;1733;42.286;22.690;2023-04-25T10:25:06;94720.41;;;19.39;58.09
3440;BME280;1733;42.286;22.690;2023-04-25T10:27:34;94720.16;;;19.84;56.52
3440;BME280;1733;42.286;22.690;2023-04-25T10:30:01;94715.09;;;20.08;55.80
3440;BME280;1733;42.286;22.690;2023-04-25T10:32:30;94710.34;;;20.31;55.61
3440;BME280;1733;42.286;22.690;2023-04-25T10:35:04;94706.53;;;20.96;56.19
3440;BME280;1733;42.286;22.690;2023-04-25T10:37:36;94712.88;;;20.83;52.77
3440;BME280;1733;42.286;22.690;2023-04-25T10:40:09;94705.28;;;20.56;54.20
3440;BME280;1733;42.286;22.690;2023-04-25T10:42:36;94720.25;;;20.31;54.66
3440;BME280;1733;42.286;22.690;2023-04-25T10:45:05;94707.28;;;19.95;55.72
3440;BME280;1733;42.286;22.690;2023-04-25T10:47:36;94713.81;;;19.54;55.98
3440;BME280;1733;42.286;22.690;2023-04-25T10:50:05;94720.56;;;18.77;60.81
3440;BME280;1733;42.286;22.690;2023-04-25T10:52:33;94710.56;;;17.62;64.79
3440;BME280;1733;42.286;22.690;2023-04-25T10:55:02;94717.72;;;16.89;68.93
3440;BME280;1733;42.286;22.690;2023-04-25T10:57:36;94713.63;;;16.04;73.15
3440;BME280;1733;42.286;22.690;2023-04-25T11:00:08;94704.47;;;15.63;75.35
3440;BME280;1733;42.286;22.690;2023-04-25T11:02:46;94709.88;;;15.34;82.36
3440;BME280;1733;42.286;22.690;2023-04-25T11:05:22;94744.88;;;14.88;86.80
3440;BME280;1733;42.286;22.690;2023-04-25T11:07:51;94722.31;;;14.43;94.88
3440;BME280;1733;42.286;22.690;2023-04-25T11:10:19;94739.06;;;14.09;100.00
3440;BME280;1733;42.286;22.690;2023-04-25T11:12:48;94727.19;;;14.02;100.00
3440;BME280;1733;42.286;22.690;2023-04-25T11:15:15;94724.88;;;13.95;100.00
3440;BME280;1733;42.286;22.690;2023-04-25T11:17:41;94712.78;;;13.89;100.00
3440;BME280;1733;42.286;22.690;2023-04-25T11:20:10;94714.59;;;13.94;100.00
3440;BME280;1733;42.286;22.690;2023-04-25T11:22:40;94730.00;;;14.16;100.00
3440;BME280;1733;42.286;22.690;2023-04-25T11:25:08;94728.53;;;14.33;98.21
3440;BME280;1733;42.286;22.690;2023-04-25T11:27:38;94721.53;;;14.48;100.00
3440;BME280;1733;42.286;22.690;2023-04-25T11:30:14;94703.25;;;14.51;100.00
3440;BME280;1733;42.286;22.690;2023-04-25T11:32:42;94709.06;;;14.48;100.00
3440;BME280;1733;42.286;22.690;2023-04-25T11:35:09;94707.81;;;14.41;100.00
3440;BME280;1733;42.286;22.690;2023-04-25T11:37:37;94692.00;;;14.35;100.00
3440;BME280;1733;42.286;22.690;2023-04-25T11:40:06;94694.41;;;14.32;100.00
3440;BME280;1733;42.286;22.690;2023-04-25T11:42:36;94689.44;;;14.25;100.00
3440;BME280;1733;42.286;22.690;2023-04-25T11:45:04;94687.31;;;14.27;100.00
3440;BME280;1733;42.286;22.690;2023-04-25T11:47:33;94706.91;;;14.26;100.00
3440;BME280;1733;42.286;22.690;2023-04-25T11:50:01;94726.41;;;14.30;100.00
3440;BME280;1733;42.286;22.690;2023-04-25T11:52:38;94724.16;;;14.19;100.00
3440;BME280;1733;42.286;22.690;2023-04-25T11:55:07;94732.09;;;14.19;100.00
3440;BME280;1733;42.286;22.690;2023-04-25T11:57:34;94736.34;;;14.15;100.00
3440;BME280;1733;42.286;22.690;2023-04-25T12:00:12;94742.44;;;14.15;100.00
3440;BME280;1733;42.286;22.690;2023-04-25T12:02:44;94715.34;;;13.99;100.00
3440;BME280;1733;42.286;22.690;2023-04-25T12:05:13;94701.06;;;14.00;100.00
3440;BME280;1733;42.286;22.690;2023-04-25T12:07:41;94724.09;;;14.24;97.48
3440;BME280;1733;42.286;22.690;2023-04-25T12:22:28;94725.03;;;14.67;100.00
3440;BME280;1733;42.286;22.690;2023-04-25T12:24:55;94721.56;;;14.67;100.00
